Antlers, Colorado
Current Conditions -  °F | °C
As of 9:53 PM on Tuesday 21 Oct 2014 (Local Time) from KEEO Reporting Station
Light Rain Light Rain  
Wind Chill: 10°   Ceiling: 5500
Heat Index: 10°   Visibility: 10mi
Dew Point:   Wind: 13mph
Humidity: 63%   Direction: 310°NW
Pressure: 30.11"   Gusts: NA
Location:  39.7934°N, 108.135°W
Report Text: KEEO 220353Z AUTO 31011KT 10SM -RA FEW034 SCT047 BKN055 10/03 A3011 RMK AO2 PK WND 28029/0314 LTG DSNT N AND NE RAB46 SLP141 P0000 T01000033
Loading
Personal Weather Stations






























Interactive Weather Map
Tropical Storm Tracking
New forecast layout! Learn more

10-Day Weather Forecast

Advertisements
Track Severe Weather on mobile